sensor_id;sensor_type;location;lat;lon;timestamp;P1;durP1;ratioP1;P2;durP2;ratioP2
17404;SDS011;8820;54.604;18.226;2022-10-31T16:37:43;41.73;;;26.13;;
17404;SDS011;8820;54.604;18.226;2022-10-31T16:40:12;41.97;;;29.27;;
17404;SDS011;8820;54.604;18.226;2022-10-31T16:42:41;46.97;;;31.03;;
17404;SDS011;8820;54.604;18.226;2022-10-31T16:45:13;52.50;;;35.40;;
17404;SDS011;8820;54.604;18.226;2022-10-31T16:47:45;51.77;;;34.03;;
17404;SDS011;8820;54.604;18.226;2022-10-31T16:50:15;47.37;;;33.97;;
17404;SDS011;8820;54.604;18.226;2022-10-31T16:52:47;47.10;;;28.73;;
17404;SDS011;8820;54.604;18.226;2022-10-31T16:55:40;48.13;;;30.73;;
17404;SDS011;8820;54.604;18.226;2022-10-31T16:58:16;43.97;;;28.10;;
17404;SDS011;8820;54.604;18.226;2022-10-31T17:00:46;45.33;;;31.20;;
17404;SDS011;8820;54.604;18.226;2022-10-31T17:03:15;40.53;;;24.43;;
17404;SDS011;8820;54.604;18.226;2022-10-31T17:05:43;42.60;;;25.40;;
17404;SDS011;8820;54.604;18.226;2022-10-31T17:08:13;43.77;;;26.33;;
17404;SDS011;8820;54.604;18.226;2022-10-31T17:10:42;42.53;;;25.77;;
17404;SDS011;8820;54.604;18.226;2022-10-31T17:13:14;43.33;;;27.10;;
17404;SDS011;8820;54.604;18.226;2022-10-31T17:15:47;46.50;;;28.93;;
17404;SDS011;8820;54.604;18.226;2022-10-31T17:18:18;38.73;;;25.13;;
17404;SDS011;8820;54.604;18.226;2022-10-31T17:20:54;48.07;;;28.30;;
17404;SDS011;8820;54.604;18.226;2022-10-31T17:23:27;46.73;;;27.87;;
17404;SDS011;8820;54.604;18.226;2022-10-31T17:25:56;46.23;;;30.27;;
17404;SDS011;8820;54.604;18.226;2022-10-31T17:28:25;49.67;;;30.03;;
17404;SDS011;8820;54.604;18.226;2022-10-31T17:30:54;48.47;;;29.43;;
17404;SDS011;8820;54.604;18.226;2022-10-31T17:33:26;51.33;;;31.70;;
17404;SDS011;8820;54.604;18.226;2022-10-31T17:35:58;46.67;;;28.47;;
17404;SDS011;8820;54.604;18.226;2022-10-31T17:38:30;53.10;;;33.03;;
17404;SDS011;8820;54.604;18.226;2022-10-31T17:41:01;49.03;;;30.17;;
17404;SDS011;8820;54.604;18.226;2022-10-31T17:43:35;49.03;;;30.43;;
17404;SDS011;8820;54.604;18.226;2022-10-31T17:46:03;59.37;;;34.57;;
17404;SDS011;8820;54.604;18.226;2022-10-31T17:48:32;61.03;;;36.43;;
17404;SDS011;8820;54.604;18.226;2022-10-31T17:51:02;67.60;;;41.57;;
17404;SDS011;8820;54.604;18.226;2022-10-31T17:53:33;99.70;;;58.57;;
17404;SDS011;8820;54.604;18.226;2022-10-31T17:56:02;111.27;;;65.97;;
17404;SDS011;8820;54.604;18.226;2022-10-31T17:58:32;115.97;;;67.43;;
17404;SDS011;8820;54.604;18.226;2022-10-31T18:01:05;110.30;;;67.27;;
17404;SDS011;8820;54.604;18.226;2022-10-31T18:03:35;122.00;;;66.77;;
17404;SDS011;8820;54.604;18.226;2022-10-31T18:06:04;113.67;;;64.40;;
17404;SDS011;8820;54.604;18.226;2022-10-31T18:08:34;97.90;;;56.73;;
17404;SDS011;8820;54.604;18.226;2022-10-31T18:11:04;89.83;;;54.87;;
17404;SDS011;8820;54.604;18.226;2022-10-31T18:13:35;89.30;;;52.33;;
17404;SDS011;8820;54.604;18.226;2022-10-31T18:16:07;92.67;;;53.10;;
17404;SDS011;8820;54.604;18.226;2022-10-31T18:18:37;94.47;;;54.33;;
17404;SDS011;8820;54.604;18.226;2022-10-31T18:21:05;96.43;;;59.13;;
17404;SDS011;8820;54.604;18.226;2022-10-31T18:23:35;95.73;;;53.60;;
17404;SDS011;8820;54.604;18.226;2022-10-31T18:26:04;80.20;;;50.20;;
17404;SDS011;8820;54.604;18.226;2022-10-31T18:28:32;65.97;;;45.20;;
17404;SDS011;8820;54.604;18.226;2022-10-31T18:31:00;46.40;;;32.03;;
17404;SDS011;8820;54.604;18.226;2022-10-31T18:33:29;39.63;;;26.73;;
17404;SDS011;8820;54.604;18.226;2022-10-31T18:36:02;37.03;;;24.30;;
17404;SDS011;8820;54.604;18.226;2022-10-31T18:38:31;41.57;;;28.30;;
17404;SDS011;8820;54.604;18.226;2022-10-31T18:41:02;38.97;;;24.70;;
17404;SDS011;8820;54.604;18.226;2022-10-31T18:43:30;37.50;;;24.80;;
17404;SDS011;8820;54.604;18.226;2022-10-31T18:46:00;40.50;;;27.17;;
17404;SDS011;8820;54.604;18.226;2022-10-31T18:48:29;42.20;;;25.83;;
17404;SDS011;8820;54.604;18.226;2022-10-31T18:51:00;34.70;;;21.73;;
17404;SDS011;8820;54.604;18.226;2022-10-31T18:53:30;28.90;;;19.97;;
17404;SDS011;8820;54.604;18.226;2022-10-31T18:55:59;24.47;;;18.57;;
17404;SDS011;8820;54.604;18.226;2022-10-31T18:58:29;26.13;;;18.23;;
17404;SDS011;8820;54.604;18.226;2022-10-31T19:01:03;29.87;;;20.23;;
17404;SDS011;8820;54.604;18.226;2022-10-31T19:03:33;29.03;;;19.73;;
17404;SDS011;8820;54.604;18.226;2022-10-31T19:06:01;27.57;;;20.03;;
17404;SDS011;8820;54.604;18.226;2022-10-31T19:08:30;29.77;;;19.77;;
17404;SDS011;8820;54.604;18.226;2022-10-31T19:11:02;29.60;;;20.83;;
17404;SDS011;8820;54.604;18.226;2022-10-31T19:13:33;27.67;;;20.67;;
17404;SDS011;8820;54.604;18.226;2022-10-31T19:16:02;30.90;;;21.97;;
17404;SDS011;8820;54.604;18.226;2022-10-31T19:18:32;31.50;;;22.73;;
17404;SDS011;8820;54.604;18.226;2022-10-31T19:21:03;30.57;;;22.73;;
17404;SDS011;8820;54.604;18.226;2022-10-31T19:23:32;32.70;;;23.90;;
17404;SDS011;8820;54.604;18.226;2022-10-31T19:26:01;37.57;;;23.77;;
17404;SDS011;8820;54.604;18.226;2022-10-31T19:28:30;31.47;;;22.77;;
17404;SDS011;8820;54.604;18.226;2022-10-31T19:31:00;31.57;;;23.53;;
17404;SDS011;8820;54.604;18.226;2022-10-31T19:33:29;29.23;;;23.50;;
17404;SDS011;8820;54.604;18.226;2022-10-31T19:36:00;32.67;;;22.77;;
17404;SDS011;8820;54.604;18.226;2022-10-31T19:38:30;35.63;;;25.47;;
17404;SDS011;8820;54.604;18.226;2022-10-31T19:40:59;36.47;;;25.43;;
17404;SDS011;8820;54.604;18.226;2022-10-31T19:43:30;42.00;;;30.10;;
17404;SDS011;8820;54.604;18.226;2022-10-31T19:45:59;37.60;;;24.70;;
17404;SDS011;8820;54.604;18.226;2022-10-31T19:48:30;31.20;;;21.87;;
17404;SDS011;8820;54.604;18.226;2022-10-31T19:50:59;25.87;;;18.77;;
17404;SDS011;8820;54.604;18.226;2022-10-31T19:53:28;29.67;;;18.70;;
17404;SDS011;8820;54.604;18.226;2022-10-31T19:55:57;29.40;;;19.17;;
17404;SDS011;8820;54.604;18.226;2022-10-31T19:58:26;26.67;;;18.70;;
17404;SDS011;8820;54.604;18.226;2022-10-31T20:00:55;33.07;;;16.40;;
17404;SDS011;8820;54.604;18.226;2022-10-31T20:03:25;78.50;;;26.10;;
17404;SDS011;8820;54.604;18.226;2022-10-31T20:05:54;44.30;;;17.23;;
17404;SDS011;8820;54.604;18.226;2022-10-31T20:08:22;25.20;;;14.67;;
17404;SDS011;8820;54.604;18.226;2022-10-31T20:10:54;22.63;;;13.80;;
17404;SDS011;8820;54.604;18.226;2022-10-31T20:13:23;87.77;;;36.33;;
17404;SDS011;8820;54.604;18.226;2022-10-31T20:15:56;81.50;;;36.50;;
17404;SDS011;8820;54.604;18.226;2022-10-31T20:18:27;27.20;;;17.00;;
17404;SDS011;8820;54.604;18.226;2022-10-31T20:21:00;18.03;;;13.10;;
17404;SDS011;8820;54.604;18.226;2022-10-31T20:23:30;19.07;;;12.30;;
17404;SDS011;8820;54.604;18.226;2022-10-31T20:25:59;15.73;;;12.10;;
17404;SDS011;8820;54.604;18.226;2022-10-31T20:28:28;20.93;;;13.33;;
17404;SDS011;8820;54.604;18.226;2022-10-31T20:30:57;15.40;;;11.53;;
17404;SDS011;8820;54.604;18.226;2022-10-31T20:33:27;12.70;;;9.67;;
17404;SDS011;8820;54.604;18.226;2022-10-31T20:35:55;14.13;;;9.57;;
17404;SDS011;8820;54.604;18.226;2022-10-31T20:38:23;14.33;;;10.23;;
17404;SDS011;8820;54.604;18.226;2022-10-31T20:40:52;16.63;;;11.00;;
17404;SDS011;8820;54.604;18.226;2022-10-31T20:43:20;16.13;;;11.63;;
17404;SDS011;8820;54.604;18.226;2022-10-31T20:45:48;17.87;;;12.53;;
17404;SDS011;8820;54.604;18.226;2022-10-31T20:48:17;19.37;;;13.07;;
17404;SDS011;8820;54.604;18.226;2022-10-31T20:50:49;15.60;;;12.10;;
17404;SDS011;8820;54.604;18.226;2022-10-31T20:53:23;13.97;;;11.17;;
17404;SDS011;8820;54.604;18.226;2022-10-31T20:55:58;14.93;;;11.13;;
17404;SDS011;8820;54.604;18.226;2022-10-31T20:58:31;12.67;;;10.33;;
17404;SDS011;8820;54.604;18.226;2022-10-31T21:00:59;17.53;;;12.23;;
17404;SDS011;8820;54.604;18.226;2022-10-31T21:03:28;15.33;;;10.73;;
17404;SDS011;8820;54.604;18.226;2022-10-31T21:05:58;16.27;;;11.17;;
17404;SDS011;8820;54.604;18.226;2022-10-31T21:08:28;15.00;;;11.43;;
17404;SDS011;8820;54.604;18.226;2022-10-31T21:10:58;13.67;;;9.93;;
17404;SDS011;8820;54.604;18.226;2022-10-31T21:13:27;14.30;;;10.50;;
17404;SDS011;8820;54.604;18.226;2022-10-31T21:15:57;45.60;;;15.10;;
17404;SDS011;8820;54.604;18.226;2022-10-31T21:18:27;21.17;;;11.80;;
17404;SDS011;8820;54.604;18.226;2022-10-31T21:20:55;14.20;;;9.73;;
17404;SDS011;8820;54.604;18.226;2022-10-31T21:23:25;11.10;;;8.87;;
17404;SDS011;8820;54.604;18.226;2022-10-31T21:25:54;12.17;;;8.73;;
17404;SDS011;8820;54.604;18.226;2022-10-31T21:28:22;12.03;;;9.20;;
17404;SDS011;8820;54.604;18.226;2022-10-31T21:30:51;12.33;;;7.77;;
17404;SDS011;8820;54.604;18.226;2022-10-31T21:33:19;10.40;;;8.10;;
17404;SDS011;8820;54.604;18.226;2022-10-31T21:35:48;8.30;;;6.70;;
17404;SDS011;8820;54.604;18.226;2022-10-31T21:38:18;9.93;;;7.67;;
17404;SDS011;8820;54.604;18.226;2022-10-31T21:40:47;9.63;;;7.77;;
17404;SDS011;8820;54.604;18.226;2022-10-31T21:43:15;11.80;;;8.10;;
17404;SDS011;8820;54.604;18.226;2022-10-31T21:45:43;8.53;;;7.10;;
17404;SDS011;8820;54.604;18.226;2022-10-31T21:48:12;11.10;;;7.20;;
17404;SDS011;8820;54.604;18.226;2022-10-31T21:50:40;9.20;;;8.17;;
17404;SDS011;8820;54.604;18.226;2022-10-31T21:53:08;11.60;;;7.40;;
17404;SDS011;8820;54.604;18.226;2022-10-31T21:55:56;11.07;;;7.53;;
17404;SDS011;8820;54.604;18.226;2022-10-31T21:58:29;10.07;;;7.77;;
17404;SDS011;8820;54.604;18.226;2022-10-31T22:00:59;10.97;;;8.40;;
17404;SDS011;8820;54.604;18.226;2022-10-31T22:03:28;11.83;;;8.60;;
17404;SDS011;8820;54.604;18.226;2022-10-31T22:06:00;11.77;;;8.67;;
17404;SDS011;8820;54.604;18.226;2022-10-31T22:08:29;12.53;;;8.70;;
17404;SDS011;8820;54.604;18.226;2022-10-31T22:11:01;14.80;;;10.63;;
17404;SDS011;8820;54.604;18.226;2022-10-31T22:13:30;16.00;;;11.20;;
17404;SDS011;8820;54.604;18.226;2022-10-31T22:15:59;13.30;;;10.30;;
17404;SDS011;8820;54.604;18.226;2022-10-31T22:18:28;15.83;;;10.83;;
17404;SDS011;8820;54.604;18.226;2022-10-31T22:20:59;17.37;;;12.43;;
17404;SDS011;8820;54.604;18.226;2022-10-31T22:23:28;21.10;;;11.97;;
17404;SDS011;8820;54.604;18.226;2022-10-31T22:26:02;15.70;;;10.07;;
17404;SDS011;8820;54.604;18.226;2022-10-31T22:28:31;14.17;;;9.83;;
17404;SDS011;8820;54.604;18.226;2022-10-31T22:31:02;16.00;;;10.07;;
17404;SDS011;8820;54.604;18.226;2022-10-31T22:33:31;16.23;;;11.40;;
